Time;durP1;ratioP1;P1;durP2;ratioP2;P2;SDS_P1;SDS_P2;PMS_P1;PMS_P2;Temp;Humidity;BMP_temperature;BMP_pressure;BME280_temperature;BME280_humidity;BME280_pressure;Samples;Min_cycle;Max_cycle;Signal;HPM_P1;HPM_P2
2023/08/13 00:09:24;;;;;;;1999.90;999.90;;;;;;;;;;6742701;88;20179;-80
2023/08/13 00:19:25;;;;;;;1999.90;999.90;;;;;;;;;;6748213;88;20303;-82
2023/08/13 00:29:27;;;;;;;1999.90;999.90;;;;;;;;;;6710564;88;20294;-82
2023/08/13 00:39:28;;;;;;;1999.90;999.90;;;;;;;;;;6693407;89;20246;-81
2023/08/13 00:49:29;;;;;;;1999.90;999.90;;;;;;;;;;6696972;88;20199;-82
2023/08/13 00:59:32;;;;;;;1999.90;999.90;;;;;;;;;;6725821;88;20237;-82
2023/08/13 01:09:39;;;;;;;1999.90;999.90;;;;;;;;;;6749087;88;20655;-81
2023/08/13 01:19:40;;;;;;;1999.90;999.90;;;;;;;;;;6745101;88;20297;-81
2023/08/13 01:30:04;;;;;;;1999.90;999.90;;;;;;;;;;6748066;88;20177;-81
2023/08/13 01:40:06;;;;;;;1999.90;999.90;;;;;;;;;;6737436;88;20746;-82
2023/08/13 01:50:07;;;;;;;1999.90;999.90;;;;;;;;;;6749061;88;20286;-82
2023/08/13 02:00:08;;;;;;;1999.90;999.90;;;;;;;;;;6748307;88;20728;-81
2023/08/13 02:10:09;;;;;;;1999.90;999.90;;;;;;;;;;6748518;88;20205;-82
2023/08/13 02:20:11;;;;;;;1999.90;999.90;;;;;;;;;;6747550;88;20204;-82
2023/08/13 02:30:12;;;;;;;1999.90;999.90;;;;;;;;;;6746772;88;20176;-81
2023/08/13 02:40:13;;;;;;;1999.90;999.90;;;;;;;;;;6743650;88;20162;-81
2023/08/13 02:50:14;;;;;;;1999.90;999.90;;;;;;;;;;6746043;88;20194;-81
2023/08/13 03:00:16;;;;;;;1999.90;999.90;;;;;;;;;;6738071;88;20637;-81
2023/08/13 03:10:17;;;;;;;1999.90;999.90;;;;;;;;;;6745519;88;20194;-81
2023/08/13 03:20:18;;;;;;;1999.90;999.90;;;;;;;;;;6744982;88;20845;-81
2023/08/13 03:30:19;;;;;;;1999.90;999.90;;;;;;;;;;6744423;88;20256;-81
2023/08/13 03:40:20;;;;;;;1999.90;999.90;;;;;;;;;;6727389;88;20314;-80
2023/08/13 03:50:21;;;;;;;1999.90;999.90;;;;;;;;;;6736957;88;20208;-81
2023/08/13 04:10:26;;;;;;;1999.90;999.90;;;;;;;;;;6719630;88;20253;-79
2023/08/13 04:20:27;;;;;;;1999.90;999.90;;;;;;;;;;6713964;88;20215;-79
2023/08/13 04:30:28;;;;;;;1999.90;999.90;;;;;;;;;;6720117;88;20197;-80
2023/08/13 04:40:29;;;;;;;1999.90;999.90;;;;;;;;;;6716074;88;20234;-79
2023/08/13 04:50:30;;;;;;;1999.90;999.90;;;;;;;;;;6711461;88;20202;-79
2023/08/13 05:00:31;;;;;;;1999.90;999.90;;;;;;;;;;6698709;88;20195;-79
2023/08/13 05:10:32;;;;;;;1999.90;999.90;;;;;;;;;;6699410;88;20333;-80
2023/08/13 05:20:33;;;;;;;1999.90;999.90;;;;;;;;;;6699582;88;20634;-79
2023/08/13 05:30:36;;;;;;;1999.90;999.90;;;;;;;;;;6711383;88;20194;-79
2023/08/13 05:40:37;;;;;;;1999.90;999.90;;;;;;;;;;6715175;88;20681;-79
2023/08/13 05:50:38;;;;;;;1999.90;999.90;;;;;;;;;;6714326;88;20217;-79
2023/08/13 06:00:40;;;;;;;1999.90;999.90;;;;;;;;;;6714900;88;20651;-79
2023/08/13 06:10:41;;;;;;;1999.90;999.90;;;;;;;;;;6729679;88;20259;-79
2023/08/13 06:20:42;;;;;;;1999.90;999.90;;;;;;;;;;6715861;88;20345;-79
2023/08/13 06:30:44;;;;;;;1999.90;999.90;;;;;;;;;;6714522;88;20209;-79
2023/08/13 06:40:46;;;;;;;1999.90;999.90;;;;;;;;;;6710406;88;20189;-78
2023/08/13 06:50:48;;;;;;;1999.90;999.90;;;;;;;;;;6711043;88;20189;-79
2023/08/13 07:00:49;;;;;;;1999.90;999.90;;;;;;;;;;6706608;88;20186;-78
2023/08/13 07:10:51;;;;;;;1999.90;999.90;;;;;;;;;;6706287;88;20205;-78
2023/08/13 07:20:52;;;;;;;1999.90;999.90;;;;;;;;;;6707698;88;20271;-77
2023/08/13 07:30:53;;;;;;;1999.90;999.90;;;;;;;;;;6709879;88;20189;-78
2023/08/13 07:40:56;;;;;;;1999.90;999.90;;;;;;;;;;6709309;88;20229;-80
2023/08/13 07:50:58;;;;;;;1999.90;999.90;;;;;;;;;;6704831;88;20190;-79
2023/08/13 08:00:59;;;;;;;1999.90;999.90;;;;;;;;;;6706154;88;20206;-83
2023/08/13 08:11:00;;;;;;;1999.90;999.90;;;;;;;;;;6705545;88;20733;-79
2023/08/13 08:21:01;;;;;;;1999.90;999.90;;;;;;;;;;6702297;88;20768;-78
2023/08/13 08:31:02;;;;;;;1999.90;999.90;;;;;;;;;;6702144;88;20733;-78
2023/08/13 08:41:03;;;;;;;1999.90;999.90;;;;;;;;;;6703656;88;20211;-78
2023/08/13 08:51:04;;;;;;;1999.90;999.90;;;;;;;;;;6709685;88;20268;-78
2023/08/13 09:01:05;;;;;;;1999.90;999.90;;;;;;;;;;6703505;88;20194;-79
2023/08/13 09:11:07;;;;;;;1999.90;999.90;;;;;;;;;;6706321;88;20318;-78
2023/08/13 09:21:09;;;;;;;1999.90;999.90;;;;;;;;;;6701084;88;20227;-78
2023/08/13 09:31:10;;;;;;;1999.90;999.90;;;;;;;;;;6701078;88;20268;-79
2023/08/13 09:41:13;;;;;;;1999.90;999.90;;;;;;;;;;6708673;88;20202;-78
2023/08/13 09:51:15;;;;;;;1999.90;999.90;;;;;;;;;;6704201;88;20199;-79
2023/08/13 10:11:22;;;;;;;;;;;;;;;;;;6711905;88;20240;-79
2023/08/13 10:21:33;;;;;;;1999.90;999.90;;;;;;;;;;6707090;88;20543;-79
2023/08/13 10:31:34;;;;;;;1999.90;999.90;;;;;;;;;;6701300;88;20291;-79
2023/08/13 10:41:35;;;;;;;1999.90;999.90;;;;;;;;;;6705587;88;20235;-78
2023/08/13 10:51:36;;;;;;;1999.90;999.90;;;;;;;;;;6701397;88;20235;-79
2023/08/13 11:01:57;;;;;;;1999.90;999.90;;;;;;;;;;6704481;88;20225;-79
2023/08/13 11:11:58;;;;;;;1999.90;999.90;;;;;;;;;;6705848;88;20190;-79
2023/08/13 11:22:00;;;;;;;1999.90;999.90;;;;;;;;;;6701422;88;20198;-78
2023/08/13 11:32:01;;;;;;;1999.90;999.90;;;;;;;;;;6709160;88;20306;-79
2023/08/13 11:42:09;;;;;;;1999.90;999.90;;;;;;;;;;6701890;88;20202;-79
2023/08/13 11:52:10;;;;;;;1999.90;999.90;;;;;;;;;;6701981;88;20222;-78
2023/08/13 12:02:13;;;;;;;1999.90;999.90;;;;;;;;;;6704513;88;20268;-79
2023/08/13 12:12:14;;;;;;;1999.90;999.90;;;;;;;;;;6713796;88;20711;-79
2023/08/13 12:22:15;;;;;;;1999.90;999.90;;;;;;;;;;6708872;88;20382;-80
2023/08/13 12:32:17;;;;;;;1999.90;999.90;;;;;;;;;;6713423;88;20203;-80
2023/08/13 12:42:18;;;;;;;1999.90;999.90;;;;;;;;;;6717549;88;20205;-78
2023/08/13 12:52:19;;;;;;;1999.90;999.90;;;;;;;;;;6704820;85;32384;-80
2023/08/13 13:09:34;;;;;;;;;;;28.00;99.90;;;;;;6768930;86;20543;-74
2023/08/13 13:19:34;;;;;;;;;;;26.20;99.90;;;;;;6741744;87;20080;-73
2023/08/13 13:29:35;;;;;;;;;;;26.00;99.90;;;;;;6764674;87;20049;-73
2023/08/13 13:39:35;;;;;;;;;;;26.60;99.90;;;;;;6753401;87;20113;-74
2023/08/13 13:49:36;;;;;;;;;;;26.40;99.90;;;;;;6759119;87;20081;-74
2023/08/13 13:59:36;;;;;;;;;;;26.40;99.90;;;;;;6752411;87;20112;-74
2023/08/13 14:09:37;;;;;;;;;;;26.30;99.90;;;;;;6732204;87;20070;-72
2023/08/13 14:19:39;;;;;;;;;;;25.80;99.90;;;;;;6726470;87;20490;-72
2023/08/13 14:29:40;;;;;;;;;;;25.80;99.90;;;;;;6725333;88;20487;-72
2023/08/13 14:39:40;;;;;;;;;;;26.20;99.90;;;;;;6731520;88;20066;-73
2023/08/13 14:49:43;;;;;;;;;;;26.10;99.90;;;;;;6721914;88;20548;-73
2023/08/13 14:59:44;;;;;;;;;;;27.00;99.90;;;;;;6725452;87;20089;-74
2023/08/13 15:09:44;;;;;;;;;;;28.10;99.80;;;;;;6739869;87;20054;-75
2023/08/13 15:19:45;;;;;;;;;;;27.50;99.30;;;;;;6742764;87;20083;-74
2023/08/13 15:29:45;;;;;;;;;;;27.90;98.70;;;;;;6745378;87;20080;-74
2023/08/13 15:39:46;;;;;;;;;;;28.10;99.30;;;;;;6746695;87;20086;-74
2023/08/13 15:49:46;;;;;;;;;;;28.40;98.80;;;;;;6741488;87;20179;-74
2023/08/13 15:59:47;;;;;;;;;;;28.20;98.60;;;;;;6747899;87;20072;-73
2023/08/13 16:09:47;;;;;;;;;;;27.20;98.80;;;;;;6743897;87;20669;-74
2023/08/13 16:19:48;;;;;;;;;;;27.80;98.90;;;;;;6749033;87;20056;-71
2023/08/13 16:29:48;;;;;;;;;;;27.60;98.40;;;;;;6743870;87;20065;-72
2023/08/13 16:39:49;;;;;;;;;;;27.30;98.70;;;;;;6739826;87;20075;-73
2023/08/13 16:49:49;;;;;;;;;;;27.60;98.60;;;;;;6749925;87;20058;-74
2023/08/13 16:59:50;;;;;;;;;;;27.60;99.30;;;;;;6739114;87;20066;-74
2023/08/13 17:09:51;;;;;;;;;;;26.60;99.60;;;;;;6747154;87;20071;-73
2023/08/13 17:19:52;;;;;;;;;;;25.50;99.90;;;;;;6750331;87;20084;-73
2023/08/13 17:29:52;;;;;;;;;;;25.50;99.90;;;;;;6739993;88;20136;-76
2023/08/13 17:39:52;;;;;;;;;;;25.40;99.90;;;;;;6758466;87;20062;-74
2023/08/13 17:49:55;;;;;;;;;;;24.90;99.90;;;;;;6736830;87;20089;-74
2023/08/13 17:59:55;;;;;;;;;;;24.50;99.90;;;;;;6742587;88;20066;-74
2023/08/13 18:09:56;;;;;;;;;;;24.30;99.90;;;;;;6740812;87;20550;-74
2023/08/13 18:19:56;;;;;;;;;;;24.00;99.90;;;;;;6754284;87;20161;-74
2023/08/13 18:29:57;;;;;;;;;;;23.70;99.90;;;;;;6746408;88;20046;-74
2023/08/13 18:39:57;;;;;;;;;;;23.50;99.90;;;;;;6742859;87;20099;-74
2023/08/13 18:49:58;;;;;;;;;;;23.10;99.90;;;;;;6748685;87;20500;-74
2023/08/13 18:59:59;;;;;;;;;;;22.80;99.90;;;;;;6751495;87;20070;-73
2023/08/13 19:09:59;;;;;;;;;;;22.50;99.90;;;;;;6747770;87;20630;-74
2023/08/13 19:19:59;;;;;;;;;;;22.30;99.90;;;;;;6748960;87;20070;-74
2023/08/13 19:30:00;;;;;;;;;;;22.00;99.90;;;;;;6745919;87;20081;-75
2023/08/13 19:40:00;;;;;;;;;;;21.80;99.90;;;;;;6750923;87;20054;-74
2023/08/13 19:50:01;;;;;;;;;;;21.60;99.90;;;;;;6751833;87;20075;-73
2023/08/13 20:00:03;;;;;;;;;;;21.40;99.90;;;;;;6743155;87;20065;-73
2023/08/13 20:10:04;;;;;;;;;;;21.30;99.90;;;;;;6738291;87;20629;-74
2023/08/13 20:20:06;;;;;;;;;;;21.20;99.90;;;;;;6743481;87;20084;-73
2023/08/13 20:30:07;;;;;;;;;;;21.00;99.90;;;;;;6744979;87;20126;-73
2023/08/13 20:40:09;;;;;;;;;;;20.80;99.90;;;;;;6746796;87;20113;-74
2023/08/13 20:50:11;;;;;;;;;;;20.70;99.90;;;;;;6754183;87;20057;-74
2023/08/13 21:00:12;;;;;;;;;;;20.50;99.90;;;;;;6750494;87;20054;-75
2023/08/13 21:10:13;;;;;;;;;;;20.00;99.90;;;;;;6752638;87;20088;-75
2023/08/13 21:20:13;;;;;;;;;;;19.90;99.90;;;;;;6755197;87;20576;-74
2023/08/13 21:30:14;;;;;;;;;;;19.80;99.90;;;;;;6740812;87;20061;-74
2023/08/13 21:40:14;;;;;;;;;;;19.60;99.90;;;;;;6743130;87;20120;-74
2023/08/13 21:50:15;;;;;;;;;;;19.50;99.90;;;;;;6749308;87;20066;-74
2023/08/13 22:00:16;;;;;;;;;;;19.30;99.90;;;;;;6752643;87;20157;-75
2023/08/13 22:10:16;;;;;;;;;;;19.20;99.90;;;;;;6743701;87;20053;-74
2023/08/13 22:20:19;;;;;;;;;;;19.00;99.90;;;;;;6744624;87;20670;-74
2023/08/13 22:30:20;;;;;;;;;;;18.70;99.90;;;;;;6744702;87;20053;-74
2023/08/13 22:40:20;;;;;;;;;;;18.30;99.90;;;;;;6743416;87;20741;-74
2023/08/13 22:50:21;;;;;;;;;;;18.20;99.90;;;;;;6742353;87;20171;-74
2023/08/13 23:00:21;;;;;;;;;;;18.00;99.90;;;;;;6742401;87;20138;-74
2023/08/13 23:10:22;;;;;;;;;;;17.80;99.90;;;;;;6727462;88;20055;-74
2023/08/13 23:20:22;;;;;;;;;;;17.60;99.90;;;;;;6727064;88;20062;-74
2023/08/13 23:30:24;;;;;;;;;;;17.40;99.90;;;;;;6730268;88;20173;-74
2023/08/13 23:40:25;;;;;;;;;;;17.20;99.90;;;;;;6729946;88;20067;-74
2023/08/13 23:50:25;;;;;;;;;;;17.10;99.90;;;;;;6725931;88;20154;-74
